Logo AVAMET
Benvolgut visitant, si us plau, ingressa Recuperar contrasenya

Inforatge Dénia Santa Llúcia

Dades diàries. Acumulats / Últims 30 dies disponibles

Data Temperatura (°C) Humitat rel. (%) Pressió rel. (hPa) Vent (km/h) Precipitació
Mínima Mitjana Màxima Amplitud
tèrmica
Mínima Mitjana Màxima Mínima Mitjana Màxima Predom. Mitjana Ràfega
màxima
Total
(mm)
Índex-n
Mínima Mitjana Màxima Mínima Mitjana Màxima n
0 a 1
P0 max
mm 5'
Dades mensuals acumulades fins l'últim dia disponible
12/2019 10,2 11,7 14,3 13,8 14,1 16,6 20,4 10,2 31 74 95 1.008 1.022 1.031   5,6 49,9 170,2
Dades anuals acumulades fins l'últim dia disponible
2019 6,4 16,2 26,8 19,5 11,3 23,3 40,7 34,3 14 65 98 997 1.020 1.039   6,5 82,0 913,0
Últims 30 dies disponibles
11-12-2019 11,0     14,4     20,1 9,1 34 49 60 1.020 1.023 1.027 WNW 8,0 49,9 0,0
10-12-2019 11,6     14,2     17,2 5,6 38 51 68 1.026 1.028 1.030 WNW 4,8 27,4 0,0
09-12-2019 14,3     16,6     20,4 6,1 31 53 72 1.025 1.028 1.031 WNW 8,0 27,4 0,0
08-12-2019 10,2     13,8     17,9 7,7 55 76 87 1.024 1.026 1.028 SSE 3,5 22,5 0,0
07-12-2019 11,0     13,1     15,9 4,9 71 84 90 1.026 1.027 1.028 W 1,8 9,7 0,0
06-12-2019 12,2     13,4     14,7 2,5 82 87 91 1.025 1.027 1.028 W 4,0 25,7 0,0
05-12-2019 11,4     13,3     15,6 4,2 77 85 88 1.013 1.020 1.026 NW 3,7 22,5 0,0
04-12-2019 10,7     12,2     14,5 3,8 79 88 95 1.008 1.010 1.013 WNW 8,2 37,0 44,2 0,35 4,20
03-12-2019 11,4     12,8     14,1 2,7 72 84 94 1.013 1.018 1.021 E 12,1 41,8 19,0 0,37 0,60
02-12-2019 11,9     13,4     14,6 2,7 75 86 92 1.015 1.017 1.021 E 5,5 35,4 107,0 0,44 15,50
01-12-2019 13,2     15,1     17,2 4,0 58 70 78 1.014 1.016 1.018 SSE 1,9 16,1 0,0
30-11-2019 14,2     17,7     21,7 7,5 53 67 77 1.018 1.022 1.024 SSE 1,7 11,3 0,0
29-11-2019 16,2     18,6     22,3 6,1 51 59 71 1.020 1.022 1.025 WNW 8,5 41,8 0,0
28-11-2019 14,8     16,8     20,4 5,6 48 58 70 1.017 1.019 1.021 WNW 9,0 48,3 0,0
27-11-2019 16,4     19,2     21,9 5,5 37 54 72 1.013 1.015 1.017 WNW 14,2 59,5 0,0
26-11-2019 15,9     18,7     22,5 6,6 49 62 72 1.014 1.016 1.019 WNW 4,2 22,5 0,0
25-11-2019 13,7     17,4     20,1 6,4 54 61 67 1.016 1.017 1.019 WNW 14,0 45,1 0,0
24-11-2019 12,9     14,8     17,3 4,4 43 47 53 1.011 1.015 1.017 WNW 18,2 57,9 0,0
23-11-2019 13,2     15,7     18,1 4,9 44 51 74 997 1.003 1.011 WNW 19,6 72,4 0,0
22-11-2019 11,9     14,8     17,7 5,8 60 76 81 998 1.006 1.012 SSE 6,3 59,5 1,8
21-11-2019 9,0     13,9     17,2 8,2 56 68 86 1.012 1.013 1.015 SW 3,4 32,2 0,2
20-11-2019 8,8     12,5     15,3 6,5 48 61 86 1.013 1.015 1.019 SW 4,5 37,0 1,0
19-11-2019 8,1     12,0     15,5 7,4 43 54 65 1.018 1.020 1.022 W 4,7 20,9 0,0
18-11-2019 10,3     12,7     14,7 4,4 56 67 88 1.010 1.015 1.020 WNW 6,4 30,6 2,0 0,20
17-11-2019 10,0     13,6     17,6 7,6 39 50 82 1.013 1.016 1.018 WNW 10,1 40,2 1,2 0,34 0,40
16-11-2019 9,9     11,9     14,9 5,0 44 53 61 1.010 1.015 1.018 WNW 8,5 37,0 0,0
15-11-2019 10,9     12,7     15,4 4,5 40 51 58 1.005 1.007 1.010 WNW 11,3 43,5 0,0
14-11-2019 12,0     15,1     18,2 6,2 41 60 77 1.003 1.007 1.014 WNW 10,3 49,9 0,0
13-11-2019 13,2     15,7     20,2 7,0 43 67 84 1.009 1.012 1.015 WNW 7,6 48,3 4,4 0,13 0,40
12-11-2019 11,9     14,7     18,9 7,0 35 46 63 1.013 1.015 1.017 WNW 9,8 40,2 0,0
Últims 13 mesos disponibles
11/2019 8,1 13,6 22,1 16,4 14,7 19,6 26,8 18,7 43 55 76 1.003 1.014 1.022 WNW 10,9 72,4 10,6
10/2019 12,6 18,0 21,7 21,1 16,6 24,5 34,5 21,9 42 68 85 1.012 1.020 1.025 SW 4,5 66,0 79,0
09/2019 13,9 21,1 24,1 24,3 23,3 27,9 34,2 20,3 50 74 92 1.014 1.021 1.027 SSE 5,5 68,5 205,0
08/2019 20,1 23,7 26,8 27,3 26,6 31,9 40,7 20,6 51 69 82 1.014 1.019 1.024 SSE 5,9 63,0 67,8
07/2019 22,5 23,8 26,6 27,2 27,8 31,5 38,7 16,2 44 67 83 1.010 1.018 1.025 SSE 6,5 82,0 2,2
06/2019 14,9 19,1 23,8 23,1 20,8 27,5 37,8 22,9 36 65 85 1.012 1.019 1.025 SSE 7,3 70,9 1,0
05/2019 12,2 15,8 21,8 19,3 18,2 23,8 31,3 19,1 49 66 84 1.009 1.019 1.028 SSE 6,2 68,5 9,4
04/2019 9,7 12,9 16,4 15,6 14,6 18,9 24,6 14,9 47 69 94 1.003 1.016 1.029 SSE 7,7 68,5 322,2
03/2019 8,3 11,7 17,8 15,4 11,9 19,2 27,7 19,4 26 60 91 1.015 1.026 1.034 SSE 5,4 51,9 39,6
02/2019 7,7 9,9 13,6 13,2 12,5 17,1 24,6 16,9 36 63 85 999 1.028 1.037 SSE 5,3 69,3 0,0
01/2019 6,4 9,5 14,2 12,3 11,3 15,6 21,2 14,8 39 60 83 1.007 1.023 1.034 O 6,4 66,7 6,0
12/2018 8,2 11,2 15,3 14,4 13,2 18,2 22,7 14,5 45 68 89 1.012 1.029 1.034 SSE 3,8 66,7 28,8
11/2018 10,8 13,6 16,8 16,1 15,6 18,8 23,4 12,6 44 68 94 1.004 1.019 1.027 OSO 5,6 66,7 91,8
Tots els anys disponibles
Temperatura (°C)
Humitat relativa (%)
Velocitat del vent i ràfega màxima (km/h)
Direcció del vent (°)
Pressió (hPa)
Precipitació (mm)
Nota sobre les dades: s'avisa a l'usuari de la provisionalitat i no oficialitat d'aquestes dades
Logo AVAMET blanc
Web allotjada a Sollutia
Llicència de Creative CommonsLa web d'AVAMET i els seus continguts estan subjectes a una llicència de
Reconeixement - No Comercial - Compartir igual
Últimes estacions: Aielo de Malferit - Centre (Soci), Faura (Inforatge), Benifairó de les Valls (Inforatge), Xàbia - Les Valls (Soci), Xàbia - Alt de la Granadella (Soci), Villena - Sierra de Salinas (Soci), Sueca - Centre (Inforatge) - - -